This is the latest recevied weather packets stored in our database for station/object GW7204. If no packets are shown the sender has not sent any weather packets the latest 10 day(s).
| Time | Temp. | Humidity | Pressure | Rain* | Wind** | Luminosity | Snow |
|---|---|---|---|---|---|---|---|
| 1777270356 | 8.89° C | 99% | 1018.2 hPa | 0 mm | - | - | - |
| 1777269979 | 8.89° C | 99% | 1018.2 hPa | 0 mm | - | - | - |
| 1777269623 | 8.89° C | 99% | 1018.2 hPa | 0 mm | - | - | - |
| 1777267126 | 8.33° C | 99% | 1018.2 hPa | 0 mm | - | - | - |
| 1777266733 | 8.33° C | 99% | 1018.2 hPa | 0 mm | - | - | - |
| 1777263508 | 8.33° C | 99% | 1018.6 hPa | 0 mm | - | - | - |
| 1777254872 | 10.56° C | 94% | 1018.2 hPa | 0 mm | - | - | - |
| 1777254135 | 10.56° C | 93% | 1017.9 hPa | 0 mm | - | - | - |
| 1777253771 | 11.11° C | 93% | 1017.9 hPa | 0 mm | - | - | - |
| 1777247674 | 18.89° C | 60% | 1017.6 hPa | 0 mm | - | - | - |
| 1777245158 | 19.44° C | 58% | 1017.6 hPa | 0 mm | - | - | - |
| 1777244805 | 20° C | 56% | 1017.2 hPa | 0 mm | - | - | - |
| 1777241198 | 18.89° C | 57% | 1016.9 hPa | 0 mm | - | - | - |
| 1777235814 | 17.22° C | 63% | 1016.9 hPa | 0 mm | - | - | - |
| 1777234359 | 17.78° C | 62% | 1017.2 hPa | 0 mm | - | - | - |
| 1777234000 | 18.89° C | 59% | 1017.2 hPa | 0 mm | - | - | - |
| 1777231817 | 16.11° C | 68% | 1017.2 hPa | 0 mm | - | - | - |
| 1777229659 | 14.44° C | 71% | 1017.9 hPa | 0 mm | - | - | - |
| 1777227175 | 15.56° C | 68% | 1017.9 hPa | 0 mm | - | - | - |
| 1777222106 | 12.22° C | 77% | 1018.2 hPa | 0 mm | - | - | - |
| 1777221386 | 11.67° C | 77% | 1018.6 hPa | 0 mm | - | - | - |
| 1777220659 | 11.11° C | 78% | 1018.2 hPa | 0 mm | - | - | - |
| 1777216009 | 10° C | 83% | 1018.2 hPa | 0 mm | - | - | - |
| 1777215257 | 10° C | 84% | 1018.2 hPa | 0 mm | - | - | - |
| 1777214931 | 10° C | 85% | 1018.2 hPa | 0 mm | - | - | - |
* Rain since midnight (hover to see other rain measurements)
** Current wind speed in m/s (hover to see current wind gust speed)